sensor_id;sensor_type;location;lat;lon;timestamp;P1;durP1;ratioP1;P2;durP2;ratioP2
58784;SDS011;44557;51.862;19.378;2022-08-01T00:00:45;7.20;;;3.20;;
58784;SDS011;44557;51.862;19.378;2022-08-01T00:01:47;5.70;;;3.10;;
58784;SDS011;44557;51.862;19.378;2022-08-01T00:02:48;6.40;;;3.20;;
58784;SDS011;44557;51.862;19.378;2022-08-01T00:03:50;6.10;;;3.10;;
58784;SDS011;44557;51.862;19.378;2022-08-01T00:04:53;5.20;;;3.10;;
58784;SDS011;44557;51.862;19.378;2022-08-01T00:05:55;7.20;;;3.10;;
58784;SDS011;44557;51.862;19.378;2022-08-01T00:06:57;5.60;;;3.10;;
58784;SDS011;44557;51.862;19.378;2022-08-01T00:07:58;4.70;;;3.00;;
58784;SDS011;44557;51.862;19.378;2022-08-01T00:09:00;7.40;;;3.20;;
58784;SDS011;44557;51.862;19.378;2022-08-01T00:10:05;7.30;;;3.50;;
58784;SDS011;44557;51.862;19.378;2022-08-01T00:11:09;5.40;;;3.30;;
58784;SDS011;44557;51.862;19.378;2022-08-01T00:12:11;4.90;;;3.30;;
58784;SDS011;44557;51.862;19.378;2022-08-01T00:13:13;4.00;;;3.10;;
58784;SDS011;44557;51.862;19.378;2022-08-01T00:14:14;5.50;;;3.30;;
58784;SDS011;44557;51.862;19.378;2022-08-01T00:15:16;4.80;;;3.40;;
58784;SDS011;44557;51.862;19.378;2022-08-01T00:16:18;5.10;;;3.40;;
58784;SDS011;44557;51.862;19.378;2022-08-01T00:17:20;6.10;;;3.40;;
58784;SDS011;44557;51.862;19.378;2022-08-01T00:18:21;4.50;;;3.50;;
58784;SDS011;44557;51.862;19.378;2022-08-01T00:19:23;7.10;;;3.70;;
58784;SDS011;44557;51.862;19.378;2022-08-01T00:20:25;5.00;;;2.90;;
58784;SDS011;44557;51.862;19.378;2022-08-01T00:21:26;5.20;;;4.00;;
58784;SDS011;44557;51.862;19.378;2022-08-01T00:22:28;8.00;;;3.60;;
58784;SDS011;44557;51.862;19.378;2022-08-01T00:23:29;4.20;;;3.30;;
58784;SDS011;44557;51.862;19.378;2022-08-01T00:24:31;5.20;;;3.60;;
58784;SDS011;44557;51.862;19.378;2022-08-01T00:25:33;6.20;;;3.80;;
58784;SDS011;44557;51.862;19.378;2022-08-01T00:26:34;4.70;;;3.60;;
58784;SDS011;44557;51.862;19.378;2022-08-01T00:27:36;5.20;;;3.70;;
58784;SDS011;44557;51.862;19.378;2022-08-01T00:28:37;5.30;;;3.40;;
58784;SDS011;44557;51.862;19.378;2022-08-01T00:29:39;4.80;;;3.50;;
58784;SDS011;44557;51.862;19.378;2022-08-01T00:30:40;4.40;;;3.40;;
58784;SDS011;44557;51.862;19.378;2022-08-01T00:31:42;4.60;;;3.40;;
58784;SDS011;44557;51.862;19.378;2022-08-01T00:32:44;4.20;;;3.30;;
58784;SDS011;44557;51.862;19.378;2022-08-01T00:33:45;4.50;;;3.50;;
58784;SDS011;44557;51.862;19.378;2022-08-01T00:34:47;4.90;;;3.40;;
58784;SDS011;44557;51.862;19.378;2022-08-01T00:35:48;4.70;;;3.90;;
58784;SDS011;44557;51.862;19.378;2022-08-01T00:36:50;4.50;;;3.40;;
58784;SDS011;44557;51.862;19.378;2022-08-01T00:37:51;4.30;;;3.30;;
58784;SDS011;44557;51.862;19.378;2022-08-01T00:38:53;5.50;;;3.80;;
58784;SDS011;44557;51.862;19.378;2022-08-01T00:39:55;4.90;;;4.00;;
58784;SDS011;44557;51.862;19.378;2022-08-01T00:40:56;4.50;;;3.60;;
58784;SDS011;44557;51.862;19.378;2022-08-01T00:41:58;4.60;;;3.50;;
58784;SDS011;44557;51.862;19.378;2022-08-01T00:43:00;5.40;;;3.40;;
58784;SDS011;44557;51.862;19.378;2022-08-01T00:44:03;4.60;;;3.40;;
58784;SDS011;44557;51.862;19.378;2022-08-01T00:45:06;6.40;;;4.30;;
58784;SDS011;44557;51.862;19.378;2022-08-01T00:46:08;5.70;;;3.60;;
58784;SDS011;44557;51.862;19.378;2022-08-01T00:47:09;5.00;;;3.70;;
58784;SDS011;44557;51.862;19.378;2022-08-01T00:48:11;5.20;;;3.50;;
58784;SDS011;44557;51.862;19.378;2022-08-01T00:49:12;5.10;;;3.80;;
58784;SDS011;44557;51.862;19.378;2022-08-01T00:50:14;5.60;;;3.80;;
58784;SDS011;44557;51.862;19.378;2022-08-01T00:51:15;6.30;;;3.90;;
58784;SDS011;44557;51.862;19.378;2022-08-01T00:52:18;4.90;;;3.50;;
58784;SDS011;44557;51.862;19.378;2022-08-01T00:53:20;5.00;;;3.70;;
58784;SDS011;44557;51.862;19.378;2022-08-01T00:54:22;5.60;;;3.90;;
58784;SDS011;44557;51.862;19.378;2022-08-01T00:55:26;5.00;;;3.80;;
58784;SDS011;44557;51.862;19.378;2022-08-01T00:56:28;7.80;;;3.90;;
58784;SDS011;44557;51.862;19.378;2022-08-01T00:57:30;5.50;;;3.90;;
58784;SDS011;44557;51.862;19.378;2022-08-01T00:58:32;5.10;;;3.80;;
58784;SDS011;44557;51.862;19.378;2022-08-01T00:59:34;4.70;;;3.50;;
58784;SDS011;44557;51.862;19.378;2022-08-01T01:00:36;4.90;;;4.00;;
58784;SDS011;44557;51.862;19.378;2022-08-01T01:01:38;5.40;;;3.60;;
58784;SDS011;44557;51.862;19.378;2022-08-01T01:02:39;4.80;;;3.70;;
58784;SDS011;44557;51.862;19.378;2022-08-01T01:03:41;4.80;;;3.60;;
58784;SDS011;44557;51.862;19.378;2022-08-01T01:04:42;4.90;;;3.60;;
58784;SDS011;44557;51.862;19.378;2022-08-01T01:07:29;5.00;;;4.00;;
58784;SDS011;44557;51.862;19.378;2022-08-01T01:10:27;6.60;;;4.10;;
58784;SDS011;44557;51.862;19.378;2022-08-01T01:11:44;4.60;;;3.50;;
58784;SDS011;44557;51.862;19.378;2022-08-01T01:12:59;6.00;;;4.00;;
58784;SDS011;44557;51.862;19.378;2022-08-01T01:14:13;6.40;;;3.80;;
58784;SDS011;44557;51.862;19.378;2022-08-01T01:15:30;5.50;;;4.30;;
58784;SDS011;44557;51.862;19.378;2022-08-01T01:16:37;5.90;;;4.10;;
58784;SDS011;44557;51.862;19.378;2022-08-01T01:19:00;5.50;;;3.90;;
58784;SDS011;44557;51.862;19.378;2022-08-01T01:20:04;5.20;;;4.20;;
58784;SDS011;44557;51.862;19.378;2022-08-01T01:24:56;5.90;;;4.30;;
58784;SDS011;44557;51.862;19.378;2022-08-01T01:26:29;5.70;;;3.50;;
58784;SDS011;44557;51.862;19.378;2022-08-01T01:29:58;4.60;;;3.60;;
58784;SDS011;44557;51.862;19.378;2022-08-01T01:31:02;7.10;;;3.90;;
58784;SDS011;44557;51.862;19.378;2022-08-01T01:32:21;4.70;;;3.70;;
58784;SDS011;44557;51.862;19.378;2022-08-01T01:33:30;6.40;;;4.10;;
58784;SDS011;44557;51.862;19.378;2022-08-01T01:34:36;5.80;;;4.40;;
58784;SDS011;44557;51.862;19.378;2022-08-01T01:35:41;4.60;;;3.80;;
58784;SDS011;44557;51.862;19.378;2022-08-01T01:36:47;4.70;;;3.90;;
58784;SDS011;44557;51.862;19.378;2022-08-01T01:37:55;5.70;;;4.20;;
58784;SDS011;44557;51.862;19.378;2022-08-01T01:39:01;4.40;;;3.50;;
58784;SDS011;44557;51.862;19.378;2022-08-01T01:40:03;6.50;;;4.00;;
58784;SDS011;44557;51.862;19.378;2022-08-01T01:41:06;5.30;;;3.90;;
58784;SDS011;44557;51.862;19.378;2022-08-01T01:42:09;6.70;;;3.60;;
58784;SDS011;44557;51.862;19.378;2022-08-01T01:43:11;5.50;;;3.90;;
58784;SDS011;44557;51.862;19.378;2022-08-01T01:44:15;6.10;;;4.00;;
58784;SDS011;44557;51.862;19.378;2022-08-01T01:45:19;3.90;;;3.50;;
58784;SDS011;44557;51.862;19.378;2022-08-01T01:46:23;4.90;;;3.80;;
58784;SDS011;44557;51.862;19.378;2022-08-01T01:47:28;5.90;;;3.90;;
58784;SDS011;44557;51.862;19.378;2022-08-01T01:48:32;5.20;;;3.80;;
58784;SDS011;44557;51.862;19.378;2022-08-01T01:49:35;5.70;;;4.20;;
58784;SDS011;44557;51.862;19.378;2022-08-01T01:50:38;5.40;;;4.20;;
58784;SDS011;44557;51.862;19.378;2022-08-01T01:51:40;5.70;;;3.70;;
58784;SDS011;44557;51.862;19.378;2022-08-01T01:52:44;4.70;;;3.60;;
58784;SDS011;44557;51.862;19.378;2022-08-01T01:53:47;5.50;;;3.80;;
58784;SDS011;44557;51.862;19.378;2022-08-01T01:54:50;5.10;;;3.80;;
58784;SDS011;44557;51.862;19.378;2022-08-01T01:55:55;5.40;;;3.90;;
58784;SDS011;44557;51.862;19.378;2022-08-01T01:56:59;5.00;;;3.70;;
58784;SDS011;44557;51.862;19.378;2022-08-01T01:58:02;6.00;;;3.60;;
58784;SDS011;44557;51.862;19.378;2022-08-01T01:59:05;5.00;;;3.30;;
58784;SDS011;44557;51.862;19.378;2022-08-01T02:00:08;6.60;;;3.70;;
58784;SDS011;44557;51.862;19.378;2022-08-01T02:01:11;5.20;;;3.40;;
58784;SDS011;44557;51.862;19.378;2022-08-01T02:02:14;7.20;;;2.70;;
58784;SDS011;44557;51.862;19.378;2022-08-01T02:03:17;5.60;;;3.30;;
58784;SDS011;44557;51.862;19.378;2022-08-01T02:04:20;5.30;;;3.20;;
58784;SDS011;44557;51.862;19.378;2022-08-01T02:05:24;4.70;;;3.20;;
58784;SDS011;44557;51.862;19.378;2022-08-01T02:06:27;7.80;;;3.30;;
58784;SDS011;44557;51.862;19.378;2022-08-01T02:07:29;7.00;;;3.10;;
58784;SDS011;44557;51.862;19.378;2022-08-01T02:08:31;7.10;;;3.50;;
58784;SDS011;44557;51.862;19.378;2022-08-01T02:09:35;7.20;;;3.40;;
58784;SDS011;44557;51.862;19.378;2022-08-01T02:10:38;5.00;;;3.20;;
58784;SDS011;44557;51.862;19.378;2022-08-01T02:11:41;4.00;;;3.30;;
58784;SDS011;44557;51.862;19.378;2022-08-01T02:12:44;4.70;;;3.10;;
58784;SDS011;44557;51.862;19.378;2022-08-01T02:13:53;6.60;;;3.10;;
58784;SDS011;44557;51.862;19.378;2022-08-01T02:14:59;4.40;;;3.10;;
58784;SDS011;44557;51.862;19.378;2022-08-01T02:16:01;4.60;;;3.10;;
58784;SDS011;44557;51.862;19.378;2022-08-01T02:17:04;4.50;;;3.50;;
58784;SDS011;44557;51.862;19.378;2022-08-01T02:18:06;4.40;;;3.30;;
58784;SDS011;44557;51.862;19.378;2022-08-01T02:19:09;5.00;;;3.10;;
58784;SDS011;44557;51.862;19.378;2022-08-01T02:20:12;5.40;;;3.30;;
58784;SDS011;44557;51.862;19.378;2022-08-01T02:21:16;4.10;;;3.30;;
58784;SDS011;44557;51.862;19.378;2022-08-01T02:22:30;3.60;;;3.00;;
58784;SDS011;44557;51.862;19.378;2022-08-01T02:23:36;5.00;;;3.30;;
58784;SDS011;44557;51.862;19.378;2022-08-01T02:24:42;4.40;;;3.30;;
58784;SDS011;44557;51.862;19.378;2022-08-01T02:25:50;5.30;;;3.30;;
58784;SDS011;44557;51.862;19.378;2022-08-01T02:26:54;4.80;;;3.20;;
58784;SDS011;44557;51.862;19.378;2022-08-01T02:28:06;4.40;;;2.80;;
58784;SDS011;44557;51.862;19.378;2022-08-01T02:29:10;6.90;;;3.50;;
58784;SDS011;44557;51.862;19.378;2022-08-01T02:30:18;6.10;;;3.10;;
58784;SDS011;44557;51.862;19.378;2022-08-01T02:31:21;4.70;;;2.90;;
58784;SDS011;44557;51.862;19.378;2022-08-01T02:32:30;7.40;;;3.10;;
58784;SDS011;44557;51.862;19.378;2022-08-01T02:33:40;5.60;;;3.10;;
58784;SDS011;44557;51.862;19.378;2022-08-01T02:34:46;7.50;;;3.00;;
58784;SDS011;44557;51.862;19.378;2022-08-01T02:35:50;8.00;;;3.20;;
58784;SDS011;44557;51.862;19.378;2022-08-01T02:36:55;6.60;;;3.20;;
58784;SDS011;44557;51.862;19.378;2022-08-01T02:37:57;8.40;;;3.30;;
58784;SDS011;44557;51.862;19.378;2022-08-01T02:39:07;6.10;;;3.20;;
58784;SDS011;44557;51.862;19.378;2022-08-01T02:40:12;4.70;;;3.40;;
58784;SDS011;44557;51.862;19.378;2022-08-01T02:41:19;9.00;;;3.20;;
58784;SDS011;44557;51.862;19.378;2022-08-01T02:42:23;4.80;;;3.20;;
58784;SDS011;44557;51.862;19.378;2022-08-01T02:43:28;8.80;;;3.20;;
58784;SDS011;44557;51.862;19.378;2022-08-01T02:44:32;6.60;;;3.30;;
58784;SDS011;44557;51.862;19.378;2022-08-01T02:45:39;8.50;;;3.40;;
58784;SDS011;44557;51.862;19.378;2022-08-01T02:46:47;7.00;;;3.60;;
58784;SDS011;44557;51.862;19.378;2022-08-01T02:47:53;5.80;;;3.40;;
58784;SDS011;44557;51.862;19.378;2022-08-01T02:49:00;5.10;;;3.40;;
58784;SDS011;44557;51.862;19.378;2022-08-01T02:50:03;6.10;;;3.50;;
58784;SDS011;44557;51.862;19.378;2022-08-01T02:51:09;6.20;;;3.30;;
58784;SDS011;44557;51.862;19.378;2022-08-01T02:52:13;6.60;;;3.10;;
58784;SDS011;44557;51.862;19.378;2022-08-01T02:53:18;8.30;;;2.90;;
58784;SDS011;44557;51.862;19.378;2022-08-01T02:54:22;11.10;;;3.20;;
58784;SDS011;44557;51.862;19.378;2022-08-01T02:55:25;3.70;;;3.10;;
58784;SDS011;44557;51.862;19.378;2022-08-01T02:56:28;4.30;;;3.10;;
58784;SDS011;44557;51.862;19.378;2022-08-01T02:57:36;5.70;;;2.60;;
58784;SDS011;44557;51.862;19.378;2022-08-01T02:58:39;4.00;;;3.20;;
58784;SDS011;44557;51.862;19.378;2022-08-01T02:59:43;4.80;;;3.20;;
58784;SDS011;44557;51.862;19.378;2022-08-01T03:00:46;4.30;;;3.00;;
58784;SDS011;44557;51.862;19.378;2022-08-01T03:01:48;4.00;;;3.00;;
58784;SDS011;44557;51.862;19.378;2022-08-01T03:02:53;5.80;;;3.00;;
58784;SDS011;44557;51.862;19.378;2022-08-01T03:03:56;6.10;;;3.10;;
58784;SDS011;44557;51.862;19.378;2022-08-01T03:04:58;3.80;;;3.00;;
58784;SDS011;44557;51.862;19.378;2022-08-01T03:06:02;5.60;;;3.30;;
58784;SDS011;44557;51.862;19.378;2022-08-01T03:07:05;6.00;;;2.90;;
58784;SDS011;44557;51.862;19.378;2022-08-01T03:08:08;6.40;;;3.30;;
58784;SDS011;44557;51.862;19.378;2022-08-01T03:09:11;4.00;;;2.90;;
58784;SDS011;44557;51.862;19.378;2022-08-01T03:10:14;3.60;;;3.10;;
58784;SDS011;44557;51.862;19.378;2022-08-01T03:11:18;4.50;;;3.20;;
58784;SDS011;44557;51.862;19.378;2022-08-01T03:12:23;3.30;;;2.90;;
58784;SDS011;44557;51.862;19.378;2022-08-01T03:13:27;4.00;;;2.90;;
58784;SDS011;44557;51.862;19.378;2022-08-01T03:14:32;4.70;;;3.20;;
58784;SDS011;44557;51.862;19.378;2022-08-01T03:15:37;5.30;;;3.30;;
58784;SDS011;44557;51.862;19.378;2022-08-01T03:16:41;4.50;;;3.20;;
58784;SDS011;44557;51.862;19.378;2022-08-01T03:17:44;3.90;;;3.20;;
58784;SDS011;44557;51.862;19.378;2022-08-01T03:18:47;6.30;;;3.20;;
58784;SDS011;44557;51.862;19.378;2022-08-01T03:19:51;5.60;;;3.40;;
58784;SDS011;44557;51.862;19.378;2022-08-01T03:20:54;4.80;;;3.40;;
58784;SDS011;44557;51.862;19.378;2022-08-01T03:21:57;3.90;;;3.30;;
58784;SDS011;44557;51.862;19.378;2022-08-01T03:23:04;4.60;;;3.40;;
58784;SDS011;44557;51.862;19.378;2022-08-01T03:24:08;3.90;;;3.20;;
58784;SDS011;44557;51.862;19.378;2022-08-01T03:25:12;4.50;;;3.40;;
58784;SDS011;44557;51.862;19.378;2022-08-01T03:26:17;6.00;;;3.40;;
58784;SDS011;44557;51.862;19.378;2022-08-01T03:27:19;5.90;;;3.50;;
58784;SDS011;44557;51.862;19.378;2022-08-01T03:28:22;4.80;;;3.40;;
58784;SDS011;44557;51.862;19.378;2022-08-01T03:29:25;4.10;;;3.50;;
58784;SDS011;44557;51.862;19.378;2022-08-01T03:30:29;7.00;;;4.30;;
58784;SDS011;44557;51.862;19.378;2022-08-01T03:31:36;6.20;;;3.60;;
58784;SDS011;44557;51.862;19.378;2022-08-01T03:32:39;7.70;;;3.30;;
58784;SDS011;44557;51.862;19.378;2022-08-01T03:33:41;8.90;;;3.40;;
58784;SDS011;44557;51.862;19.378;2022-08-01T03:34:42;4.70;;;3.60;;
58784;SDS011;44557;51.862;19.378;2022-08-01T03:35:47;6.30;;;3.30;;
58784;SDS011;44557;51.862;19.378;2022-08-01T03:36:55;5.40;;;3.60;;
58784;SDS011;44557;51.862;19.378;2022-08-01T03:38:02;6.10;;;3.70;;
58784;SDS011;44557;51.862;19.378;2022-08-01T03:39:04;4.90;;;3.30;;
58784;SDS011;44557;51.862;19.378;2022-08-01T03:40:25;4.20;;;3.10;;
58784;SDS011;44557;51.862;19.378;2022-08-01T03:41:34;4.40;;;3.60;;
58784;SDS011;44557;51.862;19.378;2022-08-01T03:42:47;5.30;;;3.30;;
58784;SDS011;44557;51.862;19.378;2022-08-01T03:43:58;6.80;;;3.40;;
58784;SDS011;44557;51.862;19.378;2022-08-01T03:45:15;5.00;;;3.50;;
58784;SDS011;44557;51.862;19.378;2022-08-01T03:46:26;6.50;;;3.80;;
58784;SDS011;44557;51.862;19.378;2022-08-01T03:47:34;6.00;;;3.20;;
58784;SDS011;44557;51.862;19.378;2022-08-01T03:48:40;5.90;;;3.50;;
58784;SDS011;44557;51.862;19.378;2022-08-01T03:49:44;8.80;;;3.40;;
58784;SDS011;44557;51.862;19.378;2022-08-01T03:50:50;9.90;;;3.30;;
58784;SDS011;44557;51.862;19.378;2022-08-01T03:51:53;6.60;;;3.20;;
58784;SDS011;44557;51.862;19.378;2022-08-01T03:52:56;15.20;;;3.10;;
58784;SDS011;44557;51.862;19.378;2022-08-01T03:54:00;5.70;;;3.20;;
58784;SDS011;44557;51.862;19.378;2022-08-01T03:55:04;9.00;;;3.50;;
58784;SDS011;44557;51.862;19.378;2022-08-01T03:56:11;6.50;;;3.60;;
58784;SDS011;44557;51.862;19.378;2022-08-01T03:57:14;7.80;;;3.60;;
58784;SDS011;44557;51.862;19.378;2022-08-01T03:58:16;8.10;;;4.20;;
58784;SDS011;44557;51.862;19.378;2022-08-01T03:59:19;17.20;;;4.00;;
58784;SDS011;44557;51.862;19.378;2022-08-01T04:00:21;6.40;;;3.90;;
58784;SDS011;44557;51.862;19.378;2022-08-01T04:01:25;10.80;;;4.10;;
58784;SDS011;44557;51.862;19.378;2022-08-01T04:02:28;9.20;;;4.00;;
58784;SDS011;44557;51.862;19.378;2022-08-01T04:03:30;6.00;;;4.00;;
58784;SDS011;44557;51.862;19.378;2022-08-01T04:04:33;9.70;;;3.50;;
58784;SDS011;44557;51.862;19.378;2022-08-01T04:05:35;9.00;;;3.70;;
58784;SDS011;44557;51.862;19.378;2022-08-01T04:06:37;6.30;;;3.90;;
58784;SDS011;44557;51.862;19.378;2022-08-01T04:07:39;4.30;;;3.30;;
58784;SDS011;44557;51.862;19.378;2022-08-01T04:08:44;6.00;;;3.60;;
58784;SDS011;44557;51.862;19.378;2022-08-01T04:09:56;16.60;;;3.60;;
58784;SDS011;44557;51.862;19.378;2022-08-01T04:10:58;10.60;;;3.80;;
58784;SDS011;44557;51.862;19.378;2022-08-01T04:11:59;9.80;;;3.50;;
58784;SDS011;44557;51.862;19.378;2022-08-01T04:13:01;7.80;;;3.70;;
58784;SDS011;44557;51.862;19.378;2022-08-01T04:14:03;4.00;;;3.40;;
58784;SDS011;44557;51.862;19.378;2022-08-01T04:15:05;14.70;;;3.90;;
58784;SDS011;44557;51.862;19.378;2022-08-01T04:16:07;5.60;;;3.80;;
58784;SDS011;44557;51.862;19.378;2022-08-01T04:17:09;5.40;;;4.20;;
58784;SDS011;44557;51.862;19.378;2022-08-01T04:18:10;17.90;;;5.10;;
58784;SDS011;44557;51.862;19.378;2022-08-01T04:19:12;8.20;;;4.90;;
58784;SDS011;44557;51.862;19.378;2022-08-01T04:20:13;5.80;;;4.10;;
58784;SDS011;44557;51.862;19.378;2022-08-01T04:21:20;5.90;;;4.00;;
58784;SDS011;44557;51.862;19.378;2022-08-01T04:22:26;6.80;;;4.20;;
58784;SDS011;44557;51.862;19.378;2022-08-01T04:23:28;7.90;;;4.50;;
58784;SDS011;44557;51.862;19.378;2022-08-01T04:24:32;8.10;;;4.60;;
58784;SDS011;44557;51.862;19.378;2022-08-01T04:25:36;7.40;;;4.60;;
58784;SDS011;44557;51.862;19.378;2022-08-01T04:26:44;7.10;;;4.70;;
58784;SDS011;44557;51.862;19.378;2022-08-01T04:27:49;8.20;;;4.30;;
58784;SDS011;44557;51.862;19.378;2022-08-01T04:28:53;6.70;;;4.10;;
58784;SDS011;44557;51.862;19.378;2022-08-01T04:29:56;5.30;;;4.10;;
58784;SDS011;44557;51.862;19.378;2022-08-01T04:31:00;7.40;;;4.40;;
58784;SDS011;44557;51.862;19.378;2022-08-01T04:32:03;6.50;;;4.30;;
58784;SDS011;44557;51.862;19.378;2022-08-01T04:33:06;7.60;;;5.30;;
58784;SDS011;44557;51.862;19.378;2022-08-01T04:34:10;6.50;;;4.50;;
58784;SDS011;44557;51.862;19.378;2022-08-01T04:35:15;14.20;;;4.50;;
58784;SDS011;44557;51.862;19.378;2022-08-01T04:36:20;6.50;;;4.20;;
58784;SDS011;44557;51.862;19.378;2022-08-01T04:37:24;7.50;;;4.10;;
58784;SDS011;44557;51.862;19.378;2022-08-01T04:38:27;6.50;;;4.50;;
58784;SDS011;44557;51.862;19.378;2022-08-01T04:39:30;5.60;;;4.20;;
58784;SDS011;44557;51.862;19.378;2022-08-01T04:40:35;7.40;;;4.50;;
58784;SDS011;44557;51.862;19.378;2022-08-01T04:41:37;5.90;;;4.10;;
58784;SDS011;44557;51.862;19.378;2022-08-01T04:42:39;6.00;;;4.40;;
58784;SDS011;44557;51.862;19.378;2022-08-01T04:43:41;9.10;;;4.40;;
58784;SDS011;44557;51.862;19.378;2022-08-01T04:44:44;5.60;;;4.10;;
58784;SDS011;44557;51.862;19.378;2022-08-01T04:45:46;5.80;;;4.00;;
58784;SDS011;44557;51.862;19.378;2022-08-01T04:46:48;8.20;;;4.20;;
58784;SDS011;44557;51.862;19.378;2022-08-01T04:47:52;6.00;;;3.70;;
58784;SDS011;44557;51.862;19.378;2022-08-01T04:48:54;6.40;;;4.50;;
58784;SDS011;44557;51.862;19.378;2022-08-01T04:49:56;6.10;;;4.20;;
58784;SDS011;44557;51.862;19.378;2022-08-01T04:50:58;5.10;;;4.10;;
58784;SDS011;44557;51.862;19.378;2022-08-01T04:52:00;5.90;;;4.60;;
58784;SDS011;44557;51.862;19.378;2022-08-01T04:53:02;5.60;;;4.30;;
58784;SDS011;44557;51.862;19.378;2022-08-01T04:54:04;6.00;;;4.10;;
58784;SDS011;44557;51.862;19.378;2022-08-01T04:55:08;6.90;;;4.10;;
58784;SDS011;44557;51.862;19.378;2022-08-01T04:56:11;6.10;;;4.40;;
58784;SDS011;44557;51.862;19.378;2022-08-01T04:57:16;5.90;;;4.50;;
58784;SDS011;44557;51.862;19.378;2022-08-01T04:58:17;6.30;;;4.30;;
58784;SDS011;44557;51.862;19.378;2022-08-01T04:59:19;7.00;;;4.60;;
58784;SDS011;44557;51.862;19.378;2022-08-01T05:00:39;5.90;;;4.40;;
58784;SDS011;44557;51.862;19.378;2022-08-01T05:01:41;4.90;;;4.10;;
58784;SDS011;44557;51.862;19.378;2022-08-01T05:02:42;6.30;;;4.70;;
58784;SDS011;44557;51.862;19.378;2022-08-01T05:03:44;5.40;;;3.90;;
58784;SDS011;44557;51.862;19.378;2022-08-01T05:04:46;7.00;;;4.20;;
58784;SDS011;44557;51.862;19.378;2022-08-01T05:05:47;9.50;;;6.80;;
58784;SDS011;44557;51.862;19.378;2022-08-01T05:06:49;10.70;;;8.30;;
58784;SDS011;44557;51.862;19.378;2022-08-01T05:07:50;8.80;;;7.00;;
58784;SDS011;44557;51.862;19.378;2022-08-01T05:08:52;7.10;;;5.40;;
58784;SDS011;44557;51.862;19.378;2022-08-01T05:09:53;8.00;;;5.30;;
58784;SDS011;44557;51.862;19.378;2022-08-01T05:10:55;5.80;;;4.40;;
58784;SDS011;44557;51.862;19.378;2022-08-01T05:11:57;6.30;;;4.90;;
58784;SDS011;44557;51.862;19.378;2022-08-01T05:12:59;7.40;;;5.00;;
58784;SDS011;44557;51.862;19.378;2022-08-01T05:14:01;6.00;;;4.70;;
58784;SDS011;44557;51.862;19.378;2022-08-01T05:15:02;13.50;;;11.30;;
58784;SDS011;44557;51.862;19.378;2022-08-01T05:16:04;7.90;;;5.80;;
58784;SDS011;44557;51.862;19.378;2022-08-01T05:17:08;8.30;;;5.40;;
58784;SDS011;44557;51.862;19.378;2022-08-01T05:18:10;6.60;;;5.00;;
58784;SDS011;44557;51.862;19.378;2022-08-01T05:19:12;6.10;;;4.80;;
58784;SDS011;44557;51.862;19.378;2022-08-01T05:20:14;5.80;;;4.30;;
58784;SDS011;44557;51.862;19.378;2022-08-01T05:21:15;6.40;;;5.30;;
58784;SDS011;44557;51.862;19.378;2022-08-01T05:22:17;7.20;;;5.00;;
58784;SDS011;44557;51.862;19.378;2022-08-01T05:23:18;6.10;;;4.40;;
58784;SDS011;44557;51.862;19.378;2022-08-01T05:24:20;6.40;;;4.60;;
58784;SDS011;44557;51.862;19.378;2022-08-01T05:25:22;5.80;;;4.30;;
58784;SDS011;44557;51.862;19.378;2022-08-01T05:26:24;6.60;;;4.80;;
58784;SDS011;44557;51.862;19.378;2022-08-01T05:27:26;6.70;;;5.20;;
58784;SDS011;44557;51.862;19.378;2022-08-01T05:28:27;6.00;;;4.70;;
58784;SDS011;44557;51.862;19.378;2022-08-01T05:29:29;8.10;;;5.30;;
58784;SDS011;44557;51.862;19.378;2022-08-01T05:30:30;6.80;;;5.00;;
58784;SDS011;44557;51.862;19.378;2022-08-01T05:31:32;6.40;;;4.60;;
58784;SDS011;44557;51.862;19.378;2022-08-01T05:32:35;6.00;;;4.50;;
58784;SDS011;44557;51.862;19.378;2022-08-01T05:33:37;7.20;;;5.10;;
58784;SDS011;44557;51.862;19.378;2022-08-01T05:34:38;6.80;;;5.30;;
58784;SDS011;44557;51.862;19.378;2022-08-01T05:35:40;6.90;;;5.00;;
58784;SDS011;44557;51.862;19.378;2022-08-01T05:36:42;7.20;;;5.00;;
58784;SDS011;44557;51.862;19.378;2022-08-01T05:37:44;6.80;;;5.00;;
58784;SDS011;44557;51.862;19.378;2022-08-01T05:38:45;7.00;;;5.50;;
58784;SDS011;44557;51.862;19.378;2022-08-01T05:39:47;6.60;;;4.90;;
58784;SDS011;44557;51.862;19.378;2022-08-01T05:40:48;6.50;;;5.00;;
58784;SDS011;44557;51.862;19.378;2022-08-01T05:41:50;7.40;;;5.10;;
58784;SDS011;44557;51.862;19.378;2022-08-01T05:42:52;6.50;;;4.90;;
58784;SDS011;44557;51.862;19.378;2022-08-01T05:43:54;6.80;;;5.00;;
58784;SDS011;44557;51.862;19.378;2022-08-01T05:44:55;6.60;;;5.10;;
58784;SDS011;44557;51.862;19.378;2022-08-01T05:45:57;8.20;;;5.00;;
58784;SDS011;44557;51.862;19.378;2022-08-01T05:46:59;7.50;;;5.40;;
58784;SDS011;44557;51.862;19.378;2022-08-01T05:48:01;6.00;;;5.00;;
58784;SDS011;44557;51.862;19.378;2022-08-01T05:49:03;7.20;;;5.40;;
58784;SDS011;44557;51.862;19.378;2022-08-01T05:50:06;6.60;;;5.00;;
58784;SDS011;44557;51.862;19.378;2022-08-01T05:51:08;7.40;;;5.20;;
58784;SDS011;44557;51.862;19.378;2022-08-01T05:52:09;8.80;;;5.00;;
58784;SDS011;44557;51.862;19.378;2022-08-01T05:53:11;6.90;;;5.20;;
58784;SDS011;44557;51.862;19.378;2022-08-01T05:54:13;6.60;;;5.20;;
58784;SDS011;44557;51.862;19.378;2022-08-01T05:55:14;9.10;;;5.00;;
58784;SDS011;44557;51.862;19.378;2022-08-01T05:56:16;7.70;;;4.90;;
58784;SDS011;44557;51.862;19.378;2022-08-01T05:57:17;7.30;;;5.00;;
58784;SDS011;44557;51.862;19.378;2022-08-01T05:58:20;6.90;;;5.00;;
58784;SDS011;44557;51.862;19.378;2022-08-01T05:59:22;6.50;;;5.50;;
58784;SDS011;44557;51.862;19.378;2022-08-01T06:00:23;6.20;;;4.70;;
58784;SDS011;44557;51.862;19.378;2022-08-01T06:01:25;6.40;;;4.70;;
58784;SDS011;44557;51.862;19.378;2022-08-01T06:02:27;8.00;;;5.00;;
58784;SDS011;44557;51.862;19.378;2022-08-01T06:03:28;6.90;;;5.20;;
58784;SDS011;44557;51.862;19.378;2022-08-01T06:04:32;7.20;;;5.30;;
58784;SDS011;44557;51.862;19.378;2022-08-01T06:05:33;8.00;;;6.00;;
58784;SDS011;44557;51.862;19.378;2022-08-01T06:06:35;7.80;;;5.40;;
58784;SDS011;44557;51.862;19.378;2022-08-01T06:07:36;8.20;;;5.30;;
58784;SDS011;44557;51.862;19.378;2022-08-01T06:08:39;8.50;;;5.30;;
58784;SDS011;44557;51.862;19.378;2022-08-01T06:09:41;9.10;;;5.90;;
58784;SDS011;44557;51.862;19.378;2022-08-01T06:10:43;8.20;;;6.50;;
58784;SDS011;44557;51.862;19.378;2022-08-01T06:11:45;9.40;;;5.90;;
58784;SDS011;44557;51.862;19.378;2022-08-01T06:12:46;14.70;;;6.10;;
58784;SDS011;44557;51.862;19.378;2022-08-01T06:13:48;8.40;;;6.10;;
58784;SDS011;44557;51.862;19.378;2022-08-01T06:14:49;8.70;;;6.00;;
58784;SDS011;44557;51.862;19.378;2022-08-01T06:15:51;7.90;;;5.60;;
58784;SDS011;44557;51.862;19.378;2022-08-01T06:16:53;9.00;;;5.50;;
58784;SDS011;44557;51.862;19.378;2022-08-01T06:17:54;6.80;;;5.10;;
58784;SDS011;44557;51.862;19.378;2022-08-01T06:18:56;6.80;;;3.50;;
58784;SDS011;44557;51.862;19.378;2022-08-01T06:19:57;6.60;;;4.40;;
58784;SDS011;44557;51.862;19.378;2022-08-01T06:21:00;8.30;;;5.40;;
58784;SDS011;44557;51.862;19.378;2022-08-01T06:22:01;7.80;;;5.70;;
58784;SDS011;44557;51.862;19.378;2022-08-01T06:23:03;7.00;;;5.10;;
58784;SDS011;44557;51.862;19.378;2022-08-01T06:24:07;8.00;;;5.00;;
58784;SDS011;44557;51.862;19.378;2022-08-01T06:25:10;6.20;;;4.40;;
58784;SDS011;44557;51.862;19.378;2022-08-01T06:26:11;6.50;;;4.10;;
58784;SDS011;44557;51.862;19.378;2022-08-01T06:27:13;5.30;;;4.10;;
58784;SDS011;44557;51.862;19.378;2022-08-01T06:28:14;5.10;;;3.90;;